Terminal Aerodrome Forecast
Issued by NWS Twin Cities, MN

Home | Current Version | Previous Version | Graphics & Text | Print | Product List | Glossary On
Versions: 1 2 3 4 5 6 7 8 9 10 11 12 13 14 15 16 17 18 19 20 21 22 23 24 25 26 27 28
192
FTUS43 KMPX 151127
TAFMSP
TAF
KMSP 151127Z 1512/1618 25008KT P6SM SCT120 BKN200
     FM151500 30008KT P6SM BKN025 OVC040
     FM151700 32012G20KT P6SM VCSH SCT010 OVC018
     FM152100 33016G23KT 6SM -SN SCT010 OVC015
     FM160400 32015G22KT P6SM SCT015 BKN100
     FM160700 32011G17KT P6SM SKC
     FM161200 26007KT P6SM SKC=

USA.gov is the U.S. government's official web portal to all federal, state and local government web resources and services.